createdAt,value
2019-01-18T00:00:50.773Z,1.5
2019-01-18T00:03:51.177Z,1.5
2019-01-18T00:06:50.787Z,1.4
2019-01-18T00:09:50.498Z,1.4
2019-01-18T00:12:50.783Z,1.4
2019-01-18T00:15:50.955Z,1.4
2019-01-18T00:18:50.458Z,1.4
2019-01-18T00:21:51.014Z,1.5
2019-01-18T00:24:50.848Z,1.4
2019-01-18T00:27:50.523Z,1.4
2019-01-18T00:30:50.832Z,1.4
2019-01-18T00:33:50.813Z,1.4
2019-01-18T00:36:50.796Z,1.3
2019-01-18T00:39:50.819Z,1.4
2019-01-18T00:42:50.698Z,1.6
2019-01-18T00:45:50.816Z,1.6
2019-01-18T00:48:50.803Z,1.5
2019-01-18T00:51:51.132Z,1.4
2019-01-18T00:54:50.839Z,1.6
2019-01-18T00:57:50.541Z,1.5
2019-01-18T01:00:50.909Z,1.4
2019-01-18T01:03:51.131Z,1.3
2019-01-18T01:06:50.821Z,1.5
2019-01-18T01:09:52.095Z,1.4
2019-01-18T01:12:50.630Z,1.3
2019-01-18T01:15:50.622Z,1.3
2019-01-18T01:18:50.332Z,1.4
2019-01-18T01:21:51.220Z,1.4
2019-01-18T01:24:50.785Z,1.3
2019-01-18T01:27:50.777Z,1.3
2019-01-18T01:30:50.384Z,1.4
2019-01-18T01:33:50.435Z,1.8
2019-01-18T01:36:50.832Z,1.7
2019-01-18T01:39:50.888Z,1.5
2019-01-18T01:42:50.562Z,1.5
2019-01-18T01:45:50.798Z,1.6
2019-01-18T01:48:50.432Z,1.5
2019-01-18T01:51:50.395Z,1.4
2019-01-18T01:54:50.433Z,1.5
2019-01-18T01:57:50.288Z,1.4
2019-01-18T02:00:50.314Z,1.4
2019-01-18T02:03:51.275Z,1.4
2019-01-18T02:06:50.753Z,1.4
2019-01-18T02:09:50.563Z,1.4
2019-01-18T02:12:50.331Z,1.4
2019-01-18T02:15:50.396Z,1.4
2019-01-18T02:18:50.522Z,1.5
2019-01-18T02:21:50.471Z,1.5
2019-01-18T02:24:50.441Z,1.5
2019-01-18T02:27:50.401Z,1.4
2019-01-18T02:30:50.446Z,1.4
2019-01-18T02:33:50.838Z,1.4
2019-01-18T02:36:50.397Z,1.4
2019-01-18T02:39:50.538Z,1.5
2019-01-18T02:42:51.061Z,1.4
2019-01-18T02:45:50.882Z,1.5
2019-01-18T02:48:50.570Z,1.4
2019-01-18T02:51:50.666Z,1.4
2019-01-18T02:54:50.779Z,1.4
2019-01-18T02:57:50.627Z,1.4
2019-01-18T03:00:50.566Z,1.4
2019-01-18T03:03:51.166Z,2.3
2019-01-18T03:06:50.547Z,1.8
2019-01-18T03:09:50.698Z,1.6
2019-01-18T03:12:53.148Z,1.6
2019-01-18T03:15:50.419Z,1.6
2019-01-18T03:18:50.320Z,1.5
2019-01-18T03:21:50.464Z,1.4
2019-01-18T03:24:50.612Z,1.4
2019-01-18T03:27:50.426Z,1.6
2019-01-18T03:30:50.693Z,1.5
2019-01-18T03:33:50.676Z,1.5
2019-01-18T03:36:50.286Z,1.5
2019-01-18T03:39:50.693Z,1.5
2019-01-18T03:42:50.730Z,1.5
2019-01-18T03:45:50.713Z,1.6
2019-01-18T03:48:50.580Z,1.6
2019-01-18T03:51:50.742Z,1.5
2019-01-18T03:54:50.413Z,1.5
2019-01-18T03:57:50.450Z,1.5
2019-01-18T04:00:50.377Z,1.6
2019-01-18T04:03:50.463Z,1.5
2019-01-18T04:06:50.778Z,1.5
2019-01-18T04:09:50.598Z,1.5
2019-01-18T04:12:50.713Z,1.9
2019-01-18T04:15:50.283Z,1.6
2019-01-18T04:18:50.902Z,1.5
2019-01-18T04:21:50.876Z,1.6
2019-01-18T04:24:51.098Z,1.6
2019-01-18T04:27:50.537Z,1.6
2019-01-18T04:30:50.473Z,1.5
2019-01-18T04:33:51.025Z,1.6
2019-01-18T04:36:50.755Z,1.6
2019-01-18T04:39:50.873Z,1.5
2019-01-18T04:42:50.825Z,1.6
2019-01-18T04:45:50.958Z,1.5
2019-01-18T04:48:50.986Z,1.4
2019-01-18T04:51:50.522Z,1.5
2019-01-18T04:54:50.244Z,1.5
2019-01-18T04:57:51.289Z,1.6
2019-01-18T05:00:51.428Z,1.6
2019-01-18T05:03:52.416Z,1.5
2019-01-18T05:06:50.506Z,1.6
2019-01-18T05:09:51.455Z,1.4
2019-01-18T05:12:51.055Z,1.4
2019-01-18T05:15:51.198Z,1.4
2019-01-18T05:18:51.074Z,1.4
2019-01-18T05:21:50.531Z,1.5
2019-01-18T05:24:50.525Z,1.4
2019-01-18T05:27:50.235Z,1.4
2019-01-18T05:30:50.183Z,1.4
2019-01-18T05:33:51.420Z,1.4
2019-01-18T05:36:50.947Z,1.4
2019-01-18T05:39:50.483Z,1.4
2019-01-18T05:42:50.773Z,1.3
2019-01-18T05:45:50.528Z,1.6
2019-01-18T05:48:50.622Z,1.5
2019-01-18T05:51:50.456Z,1.4
2019-01-18T05:54:50.487Z,1.3
2019-01-18T05:57:50.420Z,1.4
2019-01-18T06:00:56.724Z,1.4
2019-01-18T06:03:50.963Z,1.4
2019-01-18T06:06:50.659Z,1.4
2019-01-18T06:09:50.198Z,1.4
2019-01-18T06:12:50.390Z,1.4
2019-01-18T06:15:50.860Z,1.4
2019-01-18T06:18:50.721Z,1.4
2019-01-18T06:21:50.302Z,1.4
2019-01-18T06:24:50.369Z,1.3
2019-01-18T06:27:50.831Z,1.4
2019-01-18T06:30:50.431Z,1.5
2019-01-18T06:33:50.231Z,1.6
2019-01-18T06:36:50.594Z,1.6
2019-01-18T06:39:50.517Z,1.6
2019-01-18T06:42:50.548Z,1.6
2019-01-18T06:45:50.765Z,1.6
2019-01-18T06:48:51.053Z,1.5
2019-01-18T06:51:50.695Z,2.5
2019-01-18T06:54:50.361Z,4.5
2019-01-18T06:57:50.561Z,5.4
2019-01-18T07:00:51.180Z,4.8
2019-01-18T07:03:50.415Z,4.3
2019-01-18T07:06:50.331Z,3.4
2019-01-18T07:09:50.620Z,3.7
2019-01-18T07:12:50.363Z,3.9
2019-01-18T07:15:50.487Z,4.7
2019-01-18T07:18:50.356Z,4.3
2019-01-18T07:21:50.790Z,3.9
2019-01-18T07:24:50.344Z,3.3
2019-01-18T07:27:50.449Z,3.9
2019-01-18T07:30:50.184Z,4.8
2019-01-18T07:33:50.590Z,3.8
2019-01-18T07:36:50.486Z,3.4
2019-01-18T07:39:50.433Z,2.8
2019-01-18T07:42:50.665Z,3
2019-01-18T07:45:50.375Z,3.6
2019-01-18T07:48:51.165Z,3.3
2019-01-18T07:51:50.596Z,2.7
2019-01-18T07:54:50.216Z,2.9
2019-01-18T07:57:50.401Z,3.1
2019-01-18T08:00:50.613Z,4.3
2019-01-18T08:03:50.776Z,4.6
2019-01-18T08:06:50.424Z,3.7
2019-01-18T08:09:50.402Z,3.6
2019-01-18T08:12:51.612Z,3.4
2019-01-18T08:15:50.180Z,3.4
2019-01-18T08:18:50.455Z,3.4
2019-01-18T08:21:50.515Z,3.4
2019-01-18T08:24:51.018Z,4.5
2019-01-18T08:27:51.375Z,3.8
2019-01-18T08:30:50.525Z,3.4
2019-01-18T08:33:50.491Z,3.6
2019-01-18T08:36:50.510Z,3.4
2019-01-18T08:39:52.385Z,3.3
2019-01-18T08:42:51.377Z,3.5
2019-01-18T08:45:50.885Z,4.3
2019-01-18T08:48:50.317Z,3.7
2019-01-18T08:51:50.910Z,3.4
2019-01-18T08:54:50.450Z,3.2
2019-01-18T08:57:50.134Z,3.2
2019-01-18T09:00:52.138Z,3.3
2019-01-18T09:03:51.096Z,3.7
2019-01-18T09:06:50.411Z,3.2
2019-01-18T09:14:50.820Z,2.7
2019-01-18T09:17:50.854Z,2.4
2019-01-18T09:20:50.686Z,2.4
2019-01-18T09:23:50.480Z,3
2019-01-18T09:26:50.892Z,2.8
2019-01-18T09:29:50.829Z,2.6
2019-01-18T09:32:51.015Z,3.2
2019-01-18T09:35:50.523Z,2.7
2019-01-18T09:38:51.306Z,2.7
2019-01-18T09:41:51.952Z,2.9
2019-01-18T09:44:50.603Z,3.1
2019-01-18T09:47:50.760Z,2.8
2019-01-18T09:50:50.974Z,3.2
2019-01-18T09:53:50.519Z,2.6
2019-01-18T09:56:50.572Z,2.6
2019-01-18T09:59:50.862Z,2.8
2019-01-18T10:02:50.423Z,2.3
2019-01-18T10:05:50.503Z,3.3
2019-01-18T10:08:50.423Z,2.8
2019-01-18T10:11:50.556Z,3
2019-01-18T10:14:50.634Z,2.8
2019-01-18T10:17:51.064Z,2.9
2019-01-18T10:20:50.656Z,2.5
2019-01-18T10:23:50.821Z,2.7
2019-01-18T10:26:50.614Z,2.5
2019-01-18T10:29:50.509Z,2.4
2019-01-18T10:32:50.473Z,3
2019-01-18T10:35:50.698Z,3
2019-01-18T10:38:50.586Z,2.5
2019-01-18T10:41:51.063Z,2.6
2019-01-18T10:44:50.688Z,2.9
2019-01-18T10:47:50.649Z,2.4
2019-01-18T10:50:50.948Z,3.3
2019-01-18T10:53:50.594Z,3.9
2019-01-18T10:56:50.629Z,3.4
2019-01-18T10:59:50.886Z,3.4
2019-01-18T11:02:50.836Z,2.6
2019-01-18T11:05:51.122Z,2.8
2019-01-18T11:08:51.002Z,2.6
2019-01-18T11:11:50.793Z,2.6
2019-01-18T11:14:50.640Z,2.6
2019-01-18T11:17:50.442Z,2.3
2019-01-18T11:20:51.492Z,2.6
2019-01-18T11:23:50.752Z,2.3
2019-01-18T11:26:50.542Z,2.3
2019-01-18T11:29:50.802Z,2.5
2019-01-18T11:32:50.807Z,2.5
2019-01-18T11:35:50.417Z,2.7
2019-01-18T11:38:50.857Z,2.3
2019-01-18T11:41:50.823Z,2
2019-01-18T11:44:50.692Z,2.4
2019-01-18T11:47:50.843Z,2.5
2019-01-18T11:50:50.629Z,2.3
2019-01-18T11:53:50.865Z,4
2019-01-18T11:56:50.862Z,4.1
2019-01-18T11:59:52.482Z,4.1
2019-01-18T12:02:50.469Z,4.7
2019-01-18T12:05:51.050Z,3.7
2019-01-18T12:08:50.728Z,4.1
2019-01-18T12:11:53.510Z,4.5
2019-01-18T12:14:50.817Z,4.4
2019-01-18T12:17:50.482Z,3.5
2019-01-18T12:20:50.375Z,3.8
2019-01-18T12:23:50.775Z,3.6
2019-01-18T12:26:50.798Z,5
2019-01-18T12:29:50.721Z,4.7
2019-01-18T12:32:50.753Z,4
2019-01-18T12:35:50.563Z,4
2019-01-18T12:38:50.563Z,4.5
2019-01-18T12:41:50.553Z,4.9
2019-01-18T12:44:50.805Z,4.7
2019-01-18T12:51:00.504Z,6.3
2019-01-18T12:54:00.461Z,5.5
2019-01-18T12:57:00.371Z,4.6
2019-01-18T13:00:00.597Z,4.2
2019-01-18T13:03:01.434Z,4.4
2019-01-18T13:06:00.069Z,4.3
2019-01-18T13:09:00.163Z,3.5
2019-01-18T13:12:00.799Z,4.5
2019-01-18T13:15:00.049Z,3.5
2019-01-18T13:18:00.418Z,3
2019-01-18T13:21:00.311Z,2.8
2019-01-18T13:24:00.294Z,3.3
2019-01-18T13:27:00.463Z,3.2
2019-01-18T13:30:00.495Z,2.8
2019-01-18T13:33:00.410Z,2.5
2019-01-18T13:36:01.953Z,2.3
2019-01-18T13:39:00.623Z,3.3
2019-01-18T13:42:00.356Z,2.9
2019-01-18T13:45:00.448Z,2.8
2019-01-18T13:48:00.543Z,2.5
2019-01-18T13:51:00.166Z,2.7
2019-01-18T13:54:00.189Z,2.6
2019-01-18T13:57:00.373Z,2.9
2019-01-18T14:00:00.528Z,2.9
2019-01-18T14:03:00.793Z,2.3
2019-01-18T14:06:00.301Z,2.9
2019-01-18T14:09:00.263Z,2.9
2019-01-18T14:12:00.328Z,2.2
2019-01-18T14:15:00.424Z,2.5
2019-01-18T14:18:00.513Z,2.3
2019-01-18T14:21:00.314Z,2.1
2019-01-18T14:24:00.214Z,4.6
2019-01-18T14:27:00.562Z,4.3
2019-01-18T14:30:00.183Z,3.4
2019-01-18T14:33:00.188Z,3.4
2019-01-18T14:36:00.176Z,2.7
2019-01-18T14:39:00.024Z,4.7
2019-01-18T14:42:00.148Z,3.8
2019-01-18T14:45:01.994Z,4.6
2019-01-18T14:48:00.777Z,4.2
2019-01-18T14:51:00.302Z,3.4
2019-01-18T14:54:00.317Z,3
2019-01-18T14:57:01.465Z,2.8
2019-01-18T15:00:00.485Z,3
2019-01-18T15:03:04.981Z,2.8
2019-01-18T15:06:00.094Z,2.4
2019-01-18T15:09:00.156Z,2.1
2019-01-18T15:12:01.982Z,2.5
2019-01-18T15:15:00.582Z,2.4
2019-01-18T15:20:19.710Z,3
2019-01-18T15:23:21.146Z,4
2019-01-18T15:28:22.410Z,2.3
2019-01-18T15:31:22.231Z,2.2
2019-01-18T15:34:22.771Z,2.4
2019-01-18T15:37:22.519Z,2.4
2019-01-18T15:42:54.972Z,2
2019-01-18T15:45:55.058Z,1.9
2019-01-18T15:48:54.837Z,2.6
2019-01-18T15:51:55.944Z,2.1
2019-01-18T15:54:56.410Z,2
2019-01-18T15:57:54.961Z,2
2019-01-18T16:00:54.984Z,2.7
2019-01-18T16:03:55.098Z,2.9
2019-01-18T16:06:54.741Z,3
2019-01-18T16:09:54.728Z,3.1
2019-01-18T16:12:55.089Z,2.9
2019-01-18T16:15:54.938Z,4.1
2019-01-18T16:18:54.876Z,3.8
2019-01-18T16:21:54.930Z,3.6
2019-01-18T16:24:55.825Z,3.6
2019-01-18T16:27:54.845Z,2.9
2019-01-18T16:30:55.262Z,2.5
2019-01-18T16:33:55.103Z,2.4
2019-01-18T16:36:55.174Z,2.7
2019-01-18T16:39:55.064Z,2.5
2019-01-18T16:42:54.794Z,3.4
2019-01-18T16:45:54.800Z,3.1
2019-01-18T16:50:52.109Z,3.5
2019-01-18T16:53:52.470Z,3
2019-01-18T16:56:52.134Z,3.2
2019-01-18T17:02:08.346Z,2.6
2019-01-18T17:05:08.833Z,2.7
2019-01-18T17:08:07.863Z,3
2019-01-18T17:11:07.938Z,3
2019-01-18T17:14:07.730Z,2.9
2019-01-18T17:17:08.075Z,2.7
2019-01-18T17:20:07.698Z,2.8
2019-01-18T17:23:07.979Z,3.1
2019-01-18T17:26:08.176Z,3.6
2019-01-18T17:29:07.758Z,3.7
2019-01-18T17:34:14.200Z,3.5
2019-01-18T17:37:13.614Z,3.8
2019-01-18T17:40:13.315Z,3.7
2019-01-18T17:43:13.218Z,3.7
2019-01-18T17:46:14.081Z,3.7
2019-01-18T17:49:13.892Z,3.4
2019-01-18T17:52:13.894Z,3.6
2019-01-18T17:55:13.827Z,3.6
2019-01-18T17:59:54.374Z,3.5
2019-01-18T18:02:54.178Z,3.7
2019-01-18T18:05:54.147Z,4.2
2019-01-18T18:12:18.578Z,4.6
2019-01-18T18:15:19.648Z,4.3
2019-01-18T18:18:18.667Z,4.3
2019-01-18T18:21:18.908Z,4.5
2019-01-18T18:24:18.901Z,4.2
2019-01-18T18:27:18.508Z,4.8
2019-01-18T18:30:18.797Z,4.8
2019-01-18T18:33:18.839Z,4.3
2019-01-18T18:36:18.665Z,4.4
2019-01-18T18:39:18.784Z,4.6
2019-01-18T18:42:18.341Z,4.3
2019-01-18T18:45:18.352Z,4.6
2019-01-18T18:48:18.920Z,4.9
2019-01-18T18:51:18.318Z,4.7
2019-01-18T18:54:18.549Z,4.4
2019-01-18T18:57:18.765Z,4.4
2019-01-18T19:00:18.477Z,4.3
2019-01-18T19:03:18.824Z,4
2019-01-18T19:06:18.843Z,4
2019-01-18T19:09:18.770Z,4
2019-01-18T19:12:18.514Z,4.1
2019-01-18T19:15:19.333Z,4.7
2019-01-18T19:18:19.137Z,4.6
2019-01-18T19:21:18.398Z,4.6
2019-01-18T19:24:18.848Z,5.3
2019-01-18T19:27:18.516Z,5.8
2019-01-18T19:30:18.557Z,5.1
2019-01-18T19:33:18.553Z,4.7
2019-01-18T19:36:18.412Z,4.9
2019-01-18T19:39:18.988Z,5.4
2019-01-18T19:42:20.240Z,5.4
2019-01-18T19:45:18.570Z,5.1
2019-01-18T19:48:21.218Z,5
2019-01-18T19:51:18.334Z,4.9
2019-01-18T19:54:18.566Z,5
2019-01-18T19:57:19.039Z,4.7
2019-01-18T20:00:19.872Z,4.7
2019-01-18T20:03:18.496Z,5.3
2019-01-18T20:06:18.537Z,5.2
2019-01-18T20:09:18.940Z,5.1
2019-01-18T20:12:18.824Z,4.8
2019-01-18T20:15:18.605Z,4.6
2019-01-18T20:18:18.716Z,5
2019-01-18T20:21:18.326Z,5.2
2019-01-18T20:24:19.124Z,5.1
2019-01-18T20:27:20.376Z,5.1
2019-01-18T20:30:18.430Z,5.4
2019-01-18T20:33:18.572Z,5.2
2019-01-18T20:36:18.455Z,4.9
2019-01-18T20:39:18.308Z,5.1
2019-01-18T20:42:18.805Z,5.1
2019-01-18T20:45:18.860Z,4.8
2019-01-18T20:51:58.254Z,5.2
2019-01-18T20:54:57.913Z,4.8
2019-01-18T20:57:57.908Z,4.7
2019-01-18T21:00:58.505Z,5
2019-01-18T21:03:57.865Z,5.6
2019-01-18T21:06:58.071Z,5.5
2019-01-18T21:09:57.888Z,5.1
2019-01-18T21:12:58.315Z,4.9
2019-01-18T21:15:58.033Z,4.7
2019-01-18T21:18:59.715Z,4.8
2019-01-18T21:21:57.942Z,4.7
2019-01-18T21:24:58.142Z,4.5
2019-01-18T21:27:58.102Z,4.4
2019-01-18T21:30:59.685Z,4.6
2019-01-18T21:33:57.972Z,5.1
2019-01-18T21:36:57.719Z,5.4
2019-01-18T21:39:57.778Z,4.7
2019-01-18T21:42:57.999Z,4.6
2019-01-18T21:45:58.142Z,4.5
2019-01-18T21:48:58.523Z,4.5
2019-01-18T21:51:57.880Z,4.6
2019-01-18T21:54:57.921Z,4.4
2019-01-18T21:57:58.083Z,4.3
2019-01-18T22:00:57.954Z,4.5
2019-01-18T22:03:58.257Z,4.3
2019-01-18T22:06:58.116Z,4.2
2019-01-18T22:09:58.033Z,4.2
2019-01-18T22:12:58.070Z,4.4
2019-01-18T22:15:58.051Z,4.2
2019-01-18T22:18:57.756Z,4.2
2019-01-18T22:21:57.711Z,4.2
2019-01-18T22:24:57.723Z,4.1
2019-01-18T22:27:57.912Z,4.2
2019-01-18T22:30:58.024Z,4.4
2019-01-18T22:33:57.812Z,4.3
2019-01-18T22:36:57.887Z,4
2019-01-18T22:39:58.101Z,4
2019-01-18T22:42:58.138Z,4
2019-01-18T22:45:57.870Z,3.9
2019-01-18T22:48:57.860Z,4.6
2019-01-18T22:51:58.309Z,4.1
2019-01-18T22:54:58.039Z,3.9
2019-01-18T22:57:58.218Z,3.8
2019-01-18T23:00:57.779Z,3.7
2019-01-18T23:03:57.797Z,3.7
2019-01-18T23:06:57.890Z,4
2019-01-18T23:09:57.951Z,3.9
2019-01-18T23:12:57.766Z,3.8
2019-01-18T23:15:58.029Z,3.7
2019-01-18T23:18:58.552Z,3.7
2019-01-18T23:21:58.540Z,3.9
2019-01-18T23:24:57.738Z,3.9
2019-01-18T23:27:58.098Z,3.8
2019-01-18T23:30:57.666Z,3.8
2019-01-18T23:33:57.738Z,3.9
2019-01-18T23:36:57.636Z,4
2019-01-18T23:39:57.559Z,3.9
2019-01-18T23:42:58.121Z,4
2019-01-18T23:45:57.764Z,3.9
2019-01-18T23:48:57.869Z,3.8
2019-01-18T23:51:57.939Z,3.8
2019-01-18T23:54:58.395Z,3.7
2019-01-18T23:57:57.975Z,3.6
